createdAt,value
2023-03-02T00:01:08.548Z,101413.30
2023-03-02T00:03:42.332Z,101403.09
2023-03-02T00:06:14.961Z,101414.28
2023-03-02T00:08:47.979Z,101405.91
2023-03-02T00:11:21.877Z,101409.32
2023-03-02T00:13:54.167Z,101404.14
2023-03-02T00:16:26.721Z,101412.59
2023-03-02T00:18:58.977Z,101411.80
2023-03-02T00:21:32.103Z,101405.98
2023-03-02T00:24:06.003Z,101404.21
2023-03-02T00:26:39.001Z,101405.72
2023-03-02T00:29:11.582Z,101406.50
2023-03-02T00:31:44.098Z,101404.59
2023-03-02T00:34:17.084Z,101407.93
2023-03-02T00:36:50.328Z,101399.30
2023-03-02T00:39:22.638Z,101398.31
2023-03-02T00:41:55.149Z,101394.11
2023-03-02T00:44:27.403Z,101396.55
2023-03-02T00:46:59.817Z,101394.00
2023-03-02T00:49:33.064Z,101399.89
2023-03-02T00:52:07.224Z,101396.36
2023-03-02T00:54:39.517Z,101403.09
2023-03-02T00:57:11.925Z,101397.86
2023-03-02T00:59:44.237Z,101393.47
2023-03-02T01:02:26.260Z,101396.02
2023-03-02T01:04:59.943Z,101390.91
2023-03-02T01:07:35.313Z,101387.30
2023-03-02T01:10:10.736Z,101388.96
2023-03-02T01:12:43.835Z,101382.13
2023-03-02T01:15:16.580Z,101381.94
2023-03-02T01:17:48.883Z,101382.02
2023-03-02T01:20:21.622Z,101381.03
2023-03-02T01:22:56.748Z,101378.41
2023-03-02T01:25:29.121Z,101375.06
2023-03-02T01:28:04.097Z,101369.05
2023-03-02T01:30:37.258Z,101375.06
2023-03-02T01:33:09.745Z,101369.24
2023-03-02T01:35:43.234Z,101364.84
2023-03-02T01:38:16.741Z,101360.45
2023-03-02T01:40:49.608Z,101357.63
2023-03-02T01:43:21.971Z,101355.68
2023-03-02T01:45:57.601Z,101357.25
2023-03-02T01:48:53.541Z,101349.52
2023-03-02T01:51:39.595Z,101343.70
2023-03-02T01:54:17.442Z,101351.44
2023-03-02T01:56:51.500Z,101356.47
2023-03-02T01:59:25.716Z,101352.94
2023-03-02T02:02:02.262Z,101350.12
2023-03-02T02:04:37.693Z,101349.06
2023-03-02T02:07:11.411Z,101348.09
2023-03-02T02:09:49.384Z,101345.45
2023-03-02T02:12:23.772Z,101349.85
2023-03-02T02:15:01.115Z,101352.67
2023-03-02T02:17:38.560Z,101361.58
2023-03-02T02:20:21.613Z,101360.19
2023-03-02T02:23:06.423Z,101365.11
2023-03-02T02:25:46.353Z,101359.02
2023-03-02T02:28:24.607Z,101366.97
2023-03-02T02:31:14.238Z,101364.39
2023-03-02T02:33:53.093Z,101367.70
2023-03-02T02:36:34.178Z,101363.45
2023-03-02T02:39:16.626Z,101356.45
2023-03-02T02:41:52.430Z,101352.80
2023-03-02T02:44:25.306Z,101354.24
2023-03-02T02:46:58.057Z,101341.14
2023-03-02T02:49:38.222Z,101338.88
2023-03-02T02:52:13.575Z,101342.81
2023-03-02T02:54:49.438Z,101342.32
2023-03-02T02:57:25.364Z,101340.16
2023-03-02T03:00:03.081Z,101337.90
2023-03-02T03:02:45.820Z,101347.58
2023-03-02T03:05:18.480Z,101338.47
2023-03-02T03:07:51.113Z,101341.25
2023-03-02T03:10:30.486Z,101338.92
2023-03-02T03:13:03.992Z,101339.15
2023-03-02T03:15:36.283Z,101342.90
2023-03-02T03:18:10.684Z,101337.94
2023-03-02T03:20:45.659Z,101329.58
2023-03-02T03:23:18.343Z,101332.36
2023-03-02T03:25:51.125Z,101326.59
2023-03-02T03:28:23.451Z,101330.12
2023-03-02T03:30:56.517Z,101331.14
2023-03-02T03:33:29.133Z,101323.62
2023-03-02T03:36:02.532Z,101322.94
2023-03-02T03:38:36.015Z,101317.11
2023-03-02T03:41:08.599Z,101321.55
2023-03-02T03:43:40.874Z,101320.02
2023-03-02T03:46:13.376Z,101322.83
2023-03-02T03:48:45.746Z,101322.08
2023-03-02T03:51:18.893Z,101322.23
2023-03-02T03:54:00.156Z,101320.60
2023-03-02T03:56:35.832Z,101325.08
2023-03-02T03:59:12.562Z,101319.15
2023-03-02T04:01:51.292Z,101315.78
2023-03-02T04:04:22.881Z,101315.84
2023-03-02T04:06:56.808Z,101317.60
2023-03-02T04:09:32.471Z,101309.97
2023-03-02T04:12:05.498Z,101305.73
2023-03-02T04:14:38.627Z,101304.84
2023-03-02T04:17:11.136Z,101309.26
2023-03-02T04:19:47.332Z,101305.09
2023-03-02T04:22:20.374Z,101310.33
2023-03-02T04:24:53.342Z,101309.62
2023-03-02T04:27:25.778Z,101318.23
2023-03-02T04:29:58.111Z,101320.89
2023-03-02T04:32:34.473Z,101322.66
2023-03-02T04:35:09.011Z,101319.19
2023-03-02T04:37:42.720Z,101323.52
2023-03-02T04:40:17.694Z,101317.59
2023-03-02T04:42:52.468Z,101309.09
2023-03-02T04:45:25.078Z,101316.03
2023-03-02T04:47:59.907Z,101310.16
2023-03-02T04:50:32.271Z,101317.05
2023-03-02T04:53:08.261Z,101315.44
2023-03-02T04:55:41.873Z,101320.56
2023-03-02T04:58:14.838Z,101314.58
2023-03-02T05:00:47.654Z,101318.00
2023-03-02T05:03:20.199Z,101321.47
2023-03-02T05:05:52.977Z,101316.34
2023-03-02T05:08:25.644Z,101321.52
2023-03-02T05:10:58.445Z,101319.02
2023-03-02T05:13:31.307Z,101328.47
2023-03-02T05:16:05.538Z,101331.13
2023-03-02T05:18:37.859Z,101332.00
2023-03-02T05:21:10.598Z,101328.63
2023-03-02T05:23:43.802Z,101332.05
2023-03-02T05:26:17.038Z,101334.71
2023-03-02T05:28:50.346Z,101332.20
2023-03-02T05:31:27.509Z,101335.66
2023-03-02T05:34:00.050Z,101336.59
2023-03-02T05:36:34.052Z,101331.45
2023-03-02T05:39:08.160Z,101335.88
2023-03-02T05:41:41.948Z,101338.44
2023-03-02T05:44:14.348Z,101344.44
2023-03-02T05:46:47.251Z,101338.50
2023-03-02T05:49:19.640Z,101343.69
2023-03-02T05:51:52.486Z,101342.97
2023-03-02T05:54:24.756Z,101340.41
2023-03-02T05:56:57.316Z,101341.36
2023-03-02T05:59:29.712Z,101348.22
2023-03-02T06:02:02.615Z,101348.31
2023-03-02T06:04:35.043Z,101353.45
2023-03-02T06:07:08.482Z,101355.27
2023-03-02T06:09:42.537Z,101351.89
2023-03-02T06:12:15.913Z,101363.11
2023-03-02T06:14:48.238Z,101361.50
2023-03-02T06:17:21.251Z,101364.93
2023-03-02T06:19:55.884Z,101367.55
2023-03-02T06:22:29.830Z,101362.42
2023-03-02T06:25:04.452Z,101373.64
2023-03-02T06:27:38.036Z,101375.40
2023-03-02T06:30:14.533Z,101380.62
2023-03-02T06:32:46.996Z,101388.39
2023-03-02T06:35:19.921Z,101393.52
2023-03-02T06:37:52.836Z,101396.84
2023-03-02T06:40:25.216Z,101394.27
2023-03-02T06:43:01.313Z,101395.12
2023-03-02T06:45:39.118Z,101395.12
2023-03-02T06:48:11.692Z,101396.89
2023-03-02T06:50:45.947Z,101386.63
2023-03-02T06:53:18.614Z,101388.33
2023-03-02T06:55:51.645Z,101397.84
2023-03-02T06:58:24.323Z,101393.67
2023-03-02T07:00:56.655Z,101391.22
2023-03-02T07:03:29.030Z,101392.17
2023-03-02T07:06:01.359Z,101395.75
2023-03-02T07:08:34.844Z,101391.52
2023-03-02T07:11:11.935Z,101392.47
2023-03-02T07:13:44.359Z,101385.68
2023-03-02T07:16:17.759Z,101387.44
2023-03-02T07:18:50.141Z,101382.51
2023-03-02T07:21:22.489Z,101373.19
2023-03-02T07:23:54.918Z,101376.70
2023-03-02T07:26:28.092Z,101375.90
2023-03-02T07:29:01.265Z,101377.66
2023-03-02T07:31:37.229Z,101377.80
2023-03-02T07:34:09.524Z,101377.91
2023-03-02T07:36:41.750Z,101374.62
2023-03-02T07:39:14.343Z,101380.68
2023-03-02T07:41:46.908Z,101375.63
2023-03-02T07:44:19.449Z,101376.59
2023-03-02T07:46:51.916Z,101379.20
2023-03-02T07:49:24.742Z,101374.12
2023-03-02T07:51:57.019Z,101374.27
2023-03-02T07:54:30.879Z,101376.17
2023-03-02T07:57:03.979Z,101375.47
2023-03-02T07:59:36.496Z,101379.94
2023-03-02T08:02:10.710Z,101363.77
2023-03-02T08:04:43.728Z,101368.14
2023-03-02T08:07:16.222Z,101365.71
2023-03-02T08:09:48.902Z,101364.95
2023-03-02T08:12:21.388Z,101358.28
2023-03-02T08:14:54.144Z,101353.23
2023-03-02T08:17:26.596Z,101356.00
2023-03-02T08:19:59.278Z,101363.09
2023-03-02T08:22:32.461Z,101356.51
2023-03-02T08:25:09.069Z,101356.70
2023-03-02T08:27:41.556Z,101350.06
2023-03-02T08:30:16.411Z,101343.48
2023-03-02T08:32:48.849Z,101358.33
2023-03-02T08:35:22.602Z,101359.32
2023-03-02T08:37:55.400Z,101357.69
2023-03-02T08:40:28.056Z,101362.28
2023-03-02T08:43:00.345Z,101360.75
2023-03-02T08:45:36.091Z,101355.78
2023-03-02T08:48:09.845Z,101355.14
2023-03-02T08:50:43.984Z,101352.75
2023-03-02T08:53:16.553Z,101352.02
2023-03-02T08:55:49.146Z,101357.20
2023-03-02T08:58:21.903Z,101357.16
2023-03-02T09:00:54.680Z,101353.00
2023-03-02T09:03:27.090Z,101359.83
2023-03-02T09:05:59.771Z,101360.72
2023-03-02T09:08:32.090Z,101360.72
2023-03-02T09:11:06.536Z,101357.38
2023-03-02T09:13:37.521Z,101359.19
2023-03-02T09:16:12.580Z,101352.28
2023-03-02T09:18:45.128Z,101351.47
2023-03-02T09:21:17.563Z,101351.42
2023-03-02T09:23:53.904Z,101346.31
2023-03-02T09:26:27.287Z,101353.22
2023-03-02T09:29:00.908Z,101347.43
2023-03-02T09:31:38.869Z,101346.09
2023-03-02T09:34:11.478Z,101344.67
2023-03-02T09:36:44.077Z,101351.75
2023-03-02T09:39:16.384Z,101350.97
2023-03-02T09:42:17.851Z,101345.95
2023-03-02T09:45:35.373Z,101350.40
2023-03-02T09:48:18.723Z,101342.77
2023-03-02T09:51:01.246Z,101343.61
2023-03-02T09:53:44.299Z,101343.49
2023-03-02T09:56:20.226Z,101340.67
2023-03-02T09:59:00.535Z,101334.49
2023-03-02T10:01:44.130Z,101333.67
2023-03-02T10:04:29.138Z,101333.84
2023-03-02T10:07:12.807Z,101332.41
2023-03-02T10:09:45.689Z,101332.04
2023-03-02T10:12:38.042Z,101328.27
2023-03-02T10:15:15.946Z,101327.91
2023-03-02T10:18:00.859Z,101327.52
2023-03-02T10:20:47.555Z,101313.28
2023-03-02T10:23:34.206Z,101322.13
2023-03-02T10:26:16.077Z,101319.74
2023-03-02T10:28:52.217Z,101307.78
2023-03-02T10:31:30.758Z,101305.20
2023-03-02T10:34:04.605Z,101309.57
2023-03-02T10:36:41.625Z,101308.86
2023-03-02T10:39:17.293Z,101309.83
2023-03-02T10:41:54.501Z,101303.02
2023-03-02T10:44:29.611Z,101297.17
2023-03-02T10:47:01.904Z,101295.56
2023-03-02T10:49:39.493Z,101298.25
2023-03-02T10:52:17.326Z,101295.77
2023-03-02T10:54:50.142Z,101295.02
2023-03-02T10:57:36.648Z,101289.03
2023-03-02T11:00:19.368Z,101285.34
2023-03-02T11:02:57.743Z,101288.10
2023-03-02T11:05:35.557Z,101290.92
2023-03-02T11:08:12.532Z,101283.22
2023-03-02T11:10:57.012Z,101281.53
2023-03-02T11:13:35.582Z,101282.25
2023-03-02T11:16:29.242Z,101274.58
2023-03-02T11:19:06.706Z,101276.34
2023-03-02T11:21:43.065Z,101273.89
2023-03-02T11:24:20.012Z,101273.09
2023-03-02T11:26:55.117Z,101267.21
2023-03-02T11:29:43.292Z,101258.80
2023-03-02T11:32:21.543Z,101256.32
2023-03-02T11:34:58.002Z,101263.30
2023-03-02T11:37:41.176Z,101264.20
2023-03-02T11:40:23.963Z,101264.26
2023-03-02T11:42:59.912Z,101262.58
2023-03-02T11:45:35.064Z,101270.41
2023-03-02T11:48:16.334Z,101263.56
2023-03-02T11:50:57.718Z,101263.53
2023-03-02T11:53:35.100Z,101260.98
2023-03-02T11:56:08.459Z,101254.98
2023-03-02T11:58:43.733Z,101261.91
2023-03-02T12:01:23.627Z,101253.39
2023-03-02T12:04:07.609Z,101254.41
2023-03-02T12:06:44.383Z,101258.88
2023-03-02T12:09:39.595Z,101245.23
2023-03-02T12:12:35.358Z,101248.14
2023-03-02T12:15:30.878Z,101238.86
2023-03-02T12:18:03.630Z,101244.11
2023-03-02T12:20:35.928Z,101239.12
2023-03-02T12:23:25.298Z,101237.52
2023-03-02T12:26:09.052Z,101237.64
2023-03-02T12:28:42.568Z,101241.28
2023-03-02T12:31:16.542Z,101231.98
2023-03-02T12:33:52.447Z,101230.23
2023-03-02T12:36:33.598Z,101226.75
2023-03-02T12:39:27.535Z,101231.80
2023-03-02T12:42:31.831Z,101227.55
2023-03-02T12:45:16.912Z,101221.63
2023-03-02T12:47:54.207Z,101220.80
2023-03-02T12:50:31.358Z,101218.22
2023-03-02T12:53:06.435Z,101211.10
2023-03-02T12:55:41.292Z,101212.73
2023-03-02T12:58:20.407Z,101210.13
2023-03-02T13:00:58.126Z,101204.95
2023-03-02T13:03:32.651Z,101198.04
2023-03-02T13:06:13.337Z,101202.23
2023-03-02T13:08:49.128Z,101196.77
2023-03-02T13:11:29.091Z,101200.10
2023-03-02T13:14:05.139Z,101191.52
2023-03-02T13:16:38.240Z,101191.41
2023-03-02T13:19:16.706Z,101188.64
2023-03-02T13:21:49.403Z,101187.69
2023-03-02T13:24:46.913Z,101190.87
2023-03-02T13:27:21.691Z,101186.26
2023-03-02T13:29:55.794Z,101183.52
2023-03-02T13:32:35.990Z,101182.54
2023-03-02T13:35:20.667Z,101176.48
2023-03-02T13:38:01.762Z,101176.48
2023-03-02T13:40:42.911Z,101178.17
2023-03-02T13:43:37.840Z,101181.52
2023-03-02T13:46:29.089Z,101178.94
2023-03-02T13:49:10.677Z,101172.80
2023-03-02T13:51:46.778Z,101170.02
2023-03-02T13:54:25.315Z,101162.22
2023-03-02T13:57:00.525Z,101168.14
2023-03-02T13:59:36.716Z,101166.33
2023-03-02T14:02:23.779Z,101154.25
2023-03-02T14:04:56.917Z,101152.41
2023-03-02T14:07:29.397Z,101147.08
2023-03-02T14:10:02.756Z,101148.64
2023-03-02T14:12:36.115Z,101133.86
2023-03-02T14:15:17.171Z,101131.28
2023-03-02T14:17:50.512Z,101132.78
2023-03-02T14:20:23.326Z,101117.14
2023-03-02T14:22:55.627Z,101127.35
2023-03-02T14:25:28.845Z,101119.52
2023-03-02T14:28:01.205Z,101116.91
2023-03-02T14:30:36.103Z,101119.42
2023-03-02T14:33:16.972Z,101114.27
2023-03-02T14:35:50.181Z,101110.00
2023-03-02T14:38:24.801Z,101113.53
2023-03-02T14:40:57.700Z,101110.95
2023-03-02T14:43:30.858Z,101107.35
2023-03-02T14:46:03.830Z,101108.05
2023-03-02T14:48:36.819Z,101105.41
2023-03-02T14:51:23.214Z,101104.44
2023-03-02T14:53:59.376Z,101100.94
2023-03-02T14:56:33.474Z,101097.47
2023-03-02T14:59:07.075Z,101095.72
2023-03-02T15:01:40.263Z,101098.29
2023-03-02T15:04:13.322Z,101097.47
2023-03-02T15:06:47.480Z,101088.97
2023-03-02T15:09:20.129Z,101090.63
2023-03-02T15:11:52.626Z,101085.50
2023-03-02T15:14:24.959Z,101088.05
2023-03-02T15:16:57.636Z,101086.23
2023-03-02T15:19:29.919Z,101088.77
2023-03-02T15:22:02.429Z,101087.81
2023-03-02T15:24:36.249Z,101075.65
2023-03-02T15:27:09.696Z,101078.09
2023-03-02T15:29:46.456Z,101079.70
2023-03-02T15:32:19.184Z,101076.17
2023-03-02T15:34:51.580Z,101078.64
2023-03-02T15:37:23.896Z,101068.20
2023-03-02T15:40:02.033Z,101079.33
2023-03-02T15:42:36.582Z,101080.22
2023-03-02T15:45:11.616Z,101079.36
2023-03-02T15:47:44.240Z,101081.12
2023-03-02T15:50:16.816Z,101078.54
2023-03-02T15:52:49.671Z,101081.08
2023-03-02T15:55:22.115Z,101077.54
2023-03-02T15:57:58.306Z,101074.83
2023-03-02T16:00:30.727Z,101071.28
2023-03-02T16:03:03.227Z,101077.19
2023-03-02T16:05:36.088Z,101071.90
2023-03-02T16:08:12.622Z,101078.66
2023-03-02T16:10:45.247Z,101064.81
2023-03-02T16:13:17.963Z,101069.83
2023-03-02T16:15:50.578Z,101073.86
2023-03-02T16:18:24.349Z,101064.95
2023-03-02T16:20:58.117Z,101072.46
2023-03-02T16:23:31.548Z,101067.91
2023-03-02T16:26:13.448Z,101066.59
2023-03-02T16:28:49.173Z,101072.34
2023-03-02T16:31:29.357Z,101077.98
2023-03-02T16:34:07.660Z,101064.85
2023-03-02T16:36:42.312Z,101067.11
2023-03-02T16:39:13.781Z,101064.19
2023-03-02T16:41:47.550Z,101065.41
2023-03-02T16:44:20.729Z,101075.25
2023-03-02T16:46:56.952Z,101073.03
2023-03-02T16:49:33.786Z,101081.17
2023-03-02T16:52:07.780Z,101080.80
2023-03-02T16:54:40.416Z,101078.78
2023-03-02T16:57:13.233Z,101073.16
2023-03-02T16:59:45.630Z,101082.14
2023-03-02T17:02:19.209Z,101067.92
2023-03-02T17:04:51.896Z,101074.21
2023-03-02T17:07:24.566Z,101073.63
2023-03-02T17:09:59.117Z,101065.55
2023-03-02T17:12:42.841Z,101078.05
2023-03-02T17:15:18.102Z,101072.44
2023-03-02T17:17:50.686Z,101075.34
2023-03-02T17:20:23.375Z,101069.16
2023-03-02T17:22:56.519Z,101065.45
2023-03-02T17:25:29.504Z,101064.36
2023-03-02T17:28:05.024Z,101063.22
2023-03-02T17:30:38.163Z,101064.58
2023-03-02T17:33:10.847Z,101061.67
2023-03-02T17:35:46.394Z,101064.93
2023-03-02T17:38:19.651Z,101063.78
2023-03-02T17:40:51.899Z,101068.55
2023-03-02T17:43:24.665Z,101062.21
2023-03-02T17:45:58.098Z,101068.05
2023-03-02T17:48:30.706Z,101060.25
2023-03-02T17:51:03.212Z,101061.71
2023-03-02T17:53:37.095Z,101057.13
2023-03-02T17:56:11.814Z,101056.09
2023-03-02T17:58:45.542Z,101061.74
2023-03-02T18:01:17.991Z,101061.38
2023-03-02T18:03:50.495Z,101063.67
2023-03-02T18:06:23.117Z,101057.31
2023-03-02T18:08:55.922Z,101061.27
2023-03-02T18:11:30.496Z,101060.89
2023-03-02T18:14:03.384Z,101054.81
2023-03-02T18:16:52.308Z,101053.06
2023-03-02T18:19:25.052Z,101058.12
2023-03-02T18:21:57.657Z,101054.66
2023-03-02T18:24:33.808Z,101045.97
2023-03-02T18:27:11.366Z,101050.22
2023-03-02T18:29:44.117Z,101047.57
2023-03-02T18:32:17.710Z,101054.29
2023-03-02T18:34:50.333Z,101057.68
2023-03-02T18:37:22.972Z,101068.72
2023-03-02T18:39:55.888Z,101069.36
2023-03-02T18:42:33.949Z,101064.98
2023-03-02T18:45:19.134Z,101063.80
2023-03-02T18:47:51.713Z,101058.30
2023-03-02T18:50:25.266Z,101056.55
2023-03-02T18:52:58.386Z,101054.78
2023-03-02T18:55:31.260Z,101053.70
2023-03-02T18:58:03.906Z,101064.56
2023-03-02T19:00:39.966Z,101054.17
2023-03-02T19:03:12.974Z,101056.61
2023-03-02T19:05:49.497Z,101056.38
2023-03-02T19:08:23.622Z,101055.48
2023-03-02T19:10:57.230Z,101052.06
2023-03-02T19:13:33.477Z,101051.16
2023-03-02T19:16:09.449Z,101049.41
2023-03-02T19:18:42.300Z,101045.03
2023-03-02T19:21:15.073Z,101046.72
2023-03-02T19:23:47.937Z,101041.52
2023-03-02T19:26:21.462Z,101038.89
2023-03-02T19:28:55.367Z,101043.91
2023-03-02T19:31:31.939Z,101048.16
2023-03-02T19:34:10.369Z,101043.77
2023-03-02T19:36:47.919Z,101048.66
2023-03-02T19:39:22.281Z,101038.91
2023-03-02T19:42:02.366Z,101046.44
2023-03-02T19:44:43.382Z,101044.67
2023-03-02T19:47:19.493Z,101047.06
2023-03-02T19:49:57.108Z,101043.48
2023-03-02T19:52:42.414Z,101048.49
2023-03-02T19:55:20.884Z,101049.39
2023-03-02T19:58:05.611Z,101045.08
2023-03-02T20:00:43.232Z,101043.95
2023-03-02T20:03:22.237Z,101049.78
2023-03-02T20:06:07.778Z,101049.61
2023-03-02T20:08:52.103Z,101052.97
2023-03-02T20:11:27.051Z,101044.50
2023-03-02T20:14:03.220Z,101056.35
2023-03-02T20:16:45.115Z,101055.39
2023-03-02T20:19:22.799Z,101055.28
2023-03-02T20:21:58.400Z,101052.49
2023-03-02T20:24:51.403Z,101048.28
2023-03-02T20:27:27.451Z,101048.34
2023-03-02T20:30:18.023Z,101045.80
2023-03-02T20:32:52.603Z,101045.62
2023-03-02T20:35:31.698Z,101048.18
2023-03-02T20:38:16.346Z,101043.97
2023-03-02T20:40:58.806Z,101040.52
2023-03-02T20:43:35.308Z,101042.94
2023-03-02T20:46:22.190Z,101033.34
2023-03-02T20:49:09.669Z,101029.99
2023-03-02T20:51:49.425Z,101025.75
2023-03-02T20:54:27.869Z,101021.54
2023-03-02T20:57:09.069Z,101026.48
2023-03-02T20:59:46.098Z,101014.50
2023-03-02T21:02:28.367Z,101012.74
2023-03-02T21:05:05.512Z,101018.64
2023-03-02T21:07:44.383Z,101018.58
2023-03-02T21:10:21.756Z,101016.65
2023-03-02T21:12:55.310Z,101015.78
2023-03-02T21:15:29.456Z,101014.92
2023-03-02T21:18:02.156Z,101013.86
2023-03-02T21:23:17.278Z,101009.86
2023-03-02T21:25:50.177Z,101003.89
2023-03-02T21:28:22.937Z,101002.99
2023-03-02T21:30:55.362Z,101002.20
2023-03-02T21:33:29.052Z,100998.85
2023-03-02T21:36:01.671Z,100988.64
2023-03-02T21:38:36.652Z,100978.53
2023-03-02T21:41:14.826Z,100983.64
2023-03-02T21:43:48.644Z,100975.87
2023-03-02T21:46:24.167Z,100974.12
2023-03-02T21:48:58.332Z,100975.81
2023-03-02T21:51:34.010Z,100978.19
2023-03-02T21:54:10.547Z,100983.05
2023-03-02T21:56:46.136Z,100973.47
2023-03-02T21:59:18.919Z,100969.09
2023-03-02T22:01:51.654Z,100974.19
2023-03-02T22:04:24.787Z,100973.40
2023-03-02T22:06:57.433Z,100964.95
2023-03-02T22:09:30.173Z,100968.36
2023-03-02T22:12:02.964Z,100978.50
2023-03-02T22:14:36.591Z,100968.91
2023-03-02T22:17:20.476Z,100968.78
2023-03-02T22:19:54.509Z,100972.98
2023-03-02T22:22:30.577Z,100967.88
2023-03-02T22:25:16.202Z,100964.47
2023-03-02T22:27:50.403Z,100965.27
2023-03-02T22:30:27.104Z,100971.16
2023-03-02T22:33:01.194Z,100963.44
2023-03-02T22:35:34.305Z,100968.44
2023-03-02T22:38:15.146Z,100965.09
2023-03-02T22:40:49.579Z,100968.36
2023-03-02T22:43:29.623Z,100966.36
2023-03-02T22:46:16.812Z,100965.33
2023-03-02T22:48:51.359Z,100962.59
2023-03-02T22:51:25.947Z,100960.91
2023-03-02T22:54:01.857Z,100953.36
2023-03-02T22:56:39.083Z,100952.56
2023-03-02T22:59:21.758Z,100955.12
2023-03-02T23:01:55.801Z,100951.60
2023-03-02T23:04:38.166Z,100953.26
2023-03-02T23:07:21.480Z,100952.33
2023-03-02T23:09:53.979Z,100948.56
2023-03-02T23:12:29.115Z,100948.45
2023-03-02T23:15:03.115Z,100934.84
2023-03-02T23:17:39.940Z,100934.91
2023-03-02T23:20:17.132Z,100935.88
2023-03-02T23:22:52.147Z,100928.22
2023-03-02T23:25:25.074Z,100927.36
2023-03-02T23:27:57.692Z,100920.58
2023-03-02T23:30:30.364Z,100919.78
2023-03-02T23:33:02.845Z,100926.64
2023-03-02T23:35:38.079Z,100924.95
2023-03-02T23:38:13.488Z,100922.40
2023-03-02T23:40:49.329Z,100920.81
2023-03-02T23:43:24.433Z,100925.92
2023-03-02T23:45:57.489Z,100917.40
2023-03-02T23:48:30.154Z,100925.13
2023-03-02T23:51:02.990Z,100915.64
2023-03-02T23:53:38.038Z,100914.92
2023-03-02T23:56:14.326Z,100913.27
2023-03-02T23:58:50.536Z,100907.99
